createdAt,value
2023-04-10T00:00:56.381Z,26.90
2023-04-10T00:03:23.877Z,25.73
2023-04-10T00:05:50.193Z,28.07
2023-04-10T00:08:16.655Z,27.33
2023-04-10T00:10:42.879Z,26.73
2023-04-10T00:13:09.461Z,21.50
2023-04-10T00:15:35.548Z,26.80
2023-04-10T00:18:02.019Z,25.53
2023-04-10T00:20:28.157Z,30.93
2023-04-10T00:22:54.489Z,23.53
2023-04-10T00:25:22.284Z,32.17
2023-04-10T00:27:48.688Z,34.50
2023-04-10T00:30:15.219Z,31.40
2023-04-10T00:32:43.024Z,30.93
2023-04-10T00:35:09.229Z,29.90
2023-04-10T00:37:35.874Z,29.93
2023-04-10T00:40:02.421Z,34.17
2023-04-10T00:42:28.841Z,32.53
2023-04-10T00:44:55.044Z,31.23
2023-04-10T00:47:21.718Z,34.00
2023-04-10T00:49:47.832Z,37.73
2023-04-10T00:52:14.305Z,31.03
2023-04-10T00:54:40.686Z,33.60
2023-04-10T00:57:07.409Z,33.67
2023-04-10T00:59:35.093Z,33.03
2023-04-10T01:02:01.900Z,52.10
2023-04-10T01:04:30.258Z,51.63
2023-04-10T01:07:21.641Z,47.10
2023-04-10T01:09:53.445Z,35.93
2023-04-10T01:12:47.468Z,34.43
2023-04-10T01:15:17.751Z,31.70
2023-04-10T01:17:53.251Z,36.33
2023-04-10T01:20:29.243Z,32.43
2023-04-10T01:22:58.570Z,32.13
2023-04-10T01:25:40.620Z,35.37
2023-04-10T01:28:46.347Z,32.30
2023-04-10T01:31:19.231Z,34.10
2023-04-10T01:33:50.181Z,32.03
2023-04-10T01:36:22.249Z,32.03
2023-04-10T01:38:50.935Z,29.30
2023-04-10T01:41:18.759Z,32.27
2023-04-10T01:43:49.938Z,30.67
2023-04-10T01:46:18.340Z,32.47
2023-04-10T01:48:46.992Z,29.03
2023-04-10T01:51:15.310Z,26.90
2023-04-10T01:53:45.294Z,23.00
2023-04-10T01:56:12.680Z,23.10
2023-04-10T01:58:44.965Z,22.70
2023-04-10T02:01:28.432Z,24.33
2023-04-10T02:03:58.063Z,22.77
2023-04-10T02:06:51.420Z,19.00
2023-04-10T02:09:25.315Z,22.80
2023-04-10T02:12:01.286Z,37.50
2023-04-10T02:14:31.908Z,34.83
2023-04-10T02:16:58.627Z,32.70
2023-04-10T02:19:27.395Z,33.33
2023-04-10T02:21:54.728Z,31.47
2023-04-10T02:24:21.808Z,31.47
2023-04-10T02:26:52.535Z,28.07
2023-04-10T02:29:19.409Z,33.27
2023-04-10T02:31:46.115Z,30.43
2023-04-10T02:34:13.972Z,20.63
2023-04-10T02:36:40.350Z,19.47
2023-04-10T02:39:08.302Z,22.00
2023-04-10T02:41:43.386Z,17.70
2023-04-10T02:44:13.072Z,19.67
2023-04-10T02:46:39.196Z,19.80
2023-04-10T02:49:05.959Z,20.70
2023-04-10T02:51:35.442Z,20.33
2023-04-10T02:54:02.491Z,20.33
2023-04-10T02:56:33.952Z,23.13
2023-04-10T02:59:00.826Z,24.87
2023-04-10T03:01:27.211Z,27.73
2023-04-10T03:03:55.883Z,27.60
2023-04-10T03:06:26.700Z,23.53
2023-04-10T03:08:54.539Z,25.57
2023-04-10T03:11:20.696Z,19.67
2023-04-10T03:13:48.232Z,22.10
2023-04-10T03:16:16.701Z,20.23
2023-04-10T03:18:43.414Z,20.27
2023-04-10T03:21:09.830Z,22.57
2023-04-10T03:23:36.374Z,24.77
2023-04-10T03:26:03.929Z,23.10
2023-04-10T03:28:36.025Z,25.30
2023-04-10T03:31:03.582Z,21.33
2023-04-10T03:33:33.886Z,25.83
2023-04-10T03:36:00.198Z,22.30
2023-04-10T03:38:26.662Z,21.80
2023-04-10T03:40:53.182Z,24.70
2023-04-10T03:43:21.846Z,22.27
2023-04-10T03:45:48.074Z,21.43
2023-04-10T03:48:15.751Z,23.00
2023-04-10T03:50:44.552Z,24.57
2023-04-10T03:53:10.906Z,22.73
2023-04-10T03:55:37.893Z,21.23
2023-04-10T03:58:05.302Z,21.77
2023-04-10T04:00:33.288Z,22.33
2023-04-10T04:03:17.653Z,20.33
2023-04-10T04:06:01.701Z,21.47
2023-04-10T04:08:37.868Z,22.43
2023-04-10T04:11:15.928Z,22.33
2023-04-10T04:14:01.282Z,25.93
2023-04-10T04:16:46.627Z,23.93
2023-04-10T04:19:26.287Z,23.30
2023-04-10T04:22:21.649Z,27.63
2023-04-10T04:25:12.883Z,27.10
2023-04-10T04:28:15.303Z,30.13
2023-04-10T04:30:53.346Z,21.77
2023-04-10T04:33:32.869Z,20.60
2023-04-10T04:36:03.188Z,48.17
2023-04-10T04:38:49.373Z,33.53
2023-04-10T04:41:34.664Z,27.90
2023-04-10T04:44:15.596Z,37.43
2023-04-10T04:47:17.196Z,25.43
2023-04-10T04:50:01.785Z,20.33
2023-04-10T04:52:47.274Z,33.17
2023-04-10T04:55:51.625Z,31.77
2023-04-10T04:58:38.291Z,24.47
2023-04-10T05:01:12.118Z,25.67
2023-04-10T05:03:58.848Z,26.30
2023-04-10T05:06:41.496Z,24.33
2023-04-10T05:09:31.316Z,22.03
2023-04-10T05:12:32.950Z,22.20
2023-04-10T05:15:18.189Z,24.00
2023-04-10T05:17:53.366Z,28.50
2023-04-10T05:20:49.456Z,24.70
2023-04-10T05:23:39.063Z,23.60
2023-04-10T05:26:24.096Z,27.47
2023-04-10T05:28:55.974Z,24.73
2023-04-10T05:31:22.765Z,22.33
2023-04-10T05:34:06.049Z,22.17
2023-04-10T05:36:59.221Z,27.27
2023-04-10T05:39:46.285Z,26.27
2023-04-10T05:42:31.369Z,23.07
2023-04-10T05:45:15.975Z,25.90
2023-04-10T05:48:14.439Z,25.93
2023-04-10T05:50:49.303Z,26.53
2023-04-10T05:53:32.376Z,25.63
2023-04-10T05:56:15.999Z,24.37
2023-04-10T05:59:00.951Z,23.83
2023-04-10T06:01:57.095Z,22.00
2023-04-10T06:04:24.238Z,21.43
2023-04-10T06:06:53.169Z,24.87
2023-04-10T06:09:19.786Z,22.93
2023-04-10T06:11:45.972Z,24.87
2023-04-10T06:14:17.012Z,25.03
2023-04-10T06:16:44.892Z,23.60
2023-04-10T06:19:11.496Z,23.33
2023-04-10T06:21:37.629Z,24.47
2023-04-10T06:24:04.786Z,29.00
2023-04-10T06:26:31.424Z,31.13
2023-04-10T06:28:58.363Z,32.37
2023-04-10T06:31:24.677Z,29.27
2023-04-10T06:33:51.148Z,28.17
2023-04-10T06:36:17.598Z,27.27
2023-04-10T06:38:48.803Z,27.77
2023-04-10T06:41:15.105Z,24.73
2023-04-10T06:43:41.536Z,26.07
2023-04-10T06:46:07.836Z,28.20
2023-04-10T06:48:34.287Z,26.00
2023-04-10T06:51:00.390Z,27.63
2023-04-10T06:53:26.859Z,26.80
2023-04-10T06:55:53.008Z,25.63
2023-04-10T06:58:20.305Z,26.77
2023-04-10T07:00:46.603Z,26.87
2023-04-10T07:03:13.200Z,25.57
2023-04-10T07:05:42.093Z,41.50
2023-04-10T07:08:09.206Z,27.37
2023-04-10T07:10:35.804Z,27.77
2023-04-10T07:13:02.235Z,25.03
2023-04-10T07:15:28.332Z,25.00
2023-04-10T07:17:55.631Z,25.27
2023-04-10T07:20:22.059Z,25.00
2023-04-10T07:22:48.478Z,27.60
2023-04-10T07:25:16.437Z,26.63
2023-04-10T07:27:42.944Z,24.93
2023-04-10T07:30:10.816Z,23.70
2023-04-10T07:32:39.126Z,23.33
2023-04-10T07:35:06.473Z,22.93
2023-04-10T07:37:33.001Z,21.40
2023-04-10T07:40:00.055Z,26.37
2023-04-10T07:42:26.526Z,21.40
2023-04-10T07:44:52.657Z,23.70
2023-04-10T07:47:19.097Z,22.87
2023-04-10T07:49:45.623Z,22.03
2023-04-10T07:52:12.101Z,23.43
2023-04-10T07:54:38.354Z,24.77
2023-04-10T07:57:04.885Z,22.87
2023-04-10T07:59:31.028Z,29.67
2023-04-10T08:01:57.479Z,22.00
2023-04-10T08:04:23.855Z,23.70
2023-04-10T08:06:50.674Z,24.43
2023-04-10T08:09:16.807Z,25.63
2023-04-10T08:11:43.229Z,24.63
2023-04-10T08:14:09.768Z,25.57
2023-04-10T08:16:38.597Z,27.70
2023-04-10T08:19:05.176Z,26.20
2023-04-10T08:21:32.187Z,29.20
2023-04-10T08:24:00.861Z,35.63
2023-04-10T08:26:28.882Z,41.03
2023-04-10T08:28:57.244Z,37.47
2023-04-10T08:31:26.609Z,28.27
2023-04-10T08:33:53.737Z,28.30
2023-04-10T08:36:20.815Z,29.77
2023-04-10T08:38:47.242Z,30.53
2023-04-10T08:41:18.805Z,27.67
2023-04-10T08:43:45.574Z,28.27
2023-04-10T08:46:13.759Z,26.63
2023-04-10T08:48:45.944Z,27.83
2023-04-10T08:51:20.026Z,28.03
2023-04-10T08:53:51.292Z,26.60
2023-04-10T08:56:18.614Z,28.17
2023-04-10T08:58:45.166Z,28.30
2023-04-10T09:01:11.756Z,27.30
2023-04-10T09:03:38.430Z,27.13
2023-04-10T09:06:05.586Z,25.77
2023-04-10T09:08:31.900Z,31.67
2023-04-10T09:10:58.686Z,30.90
2023-04-10T09:13:40.131Z,29.53
2023-04-10T09:16:08.274Z,29.63
2023-04-10T09:19:02.196Z,28.30
2023-04-10T09:21:28.786Z,31.63
2023-04-10T09:24:00.738Z,32.20
2023-04-10T09:26:32.016Z,34.10
2023-04-10T09:29:00.012Z,34.07
2023-04-10T09:31:34.437Z,35.27
2023-04-10T09:34:11.249Z,35.23
2023-04-10T09:36:37.889Z,30.93
2023-04-10T09:39:05.319Z,32.80
2023-04-10T09:41:31.907Z,32.83
2023-04-10T09:44:10.630Z,32.13
2023-04-10T09:46:38.052Z,34.13
2023-04-10T09:49:06.551Z,31.30
2023-04-10T09:51:36.686Z,30.27
2023-04-10T09:54:03.502Z,32.20
2023-04-10T09:56:30.538Z,31.57
2023-04-10T09:58:59.107Z,33.30
2023-04-10T10:01:28.172Z,28.93
2023-04-10T10:03:55.680Z,34.37
2023-04-10T10:06:23.085Z,34.93
2023-04-10T10:08:50.409Z,35.77
2023-04-10T10:11:25.570Z,32.27
2023-04-10T10:13:56.474Z,34.67
2023-04-10T10:16:35.465Z,38.23
2023-04-10T10:19:30.924Z,34.30
2023-04-10T10:22:00.268Z,39.97
2023-04-10T10:24:27.441Z,30.43
2023-04-10T10:26:55.158Z,35.00
2023-04-10T10:29:23.712Z,37.80
2023-04-10T10:31:53.197Z,34.40
2023-04-10T10:34:21.072Z,38.97
2023-04-10T10:36:47.652Z,41.07
2023-04-10T10:39:51.757Z,34.90
2023-04-10T10:42:26.944Z,32.23
2023-04-10T10:45:25.449Z,28.90
2023-04-10T10:47:53.870Z,33.83
2023-04-10T10:50:23.591Z,31.10
2023-04-10T10:52:53.280Z,29.17
2023-04-10T10:55:23.726Z,29.67
2023-04-10T10:58:01.472Z,28.73
2023-04-10T11:00:49.599Z,29.20
2023-04-10T11:03:16.093Z,32.17
2023-04-10T11:05:48.360Z,35.07
2023-04-10T11:08:15.221Z,32.33
2023-04-10T11:11:04.032Z,36.63
2023-04-10T11:13:35.176Z,29.40
2023-04-10T11:16:03.231Z,35.80
2023-04-10T11:18:56.012Z,38.10
2023-04-10T11:21:28.901Z,38.77
2023-04-10T11:23:55.584Z,43.27
2023-04-10T11:26:43.379Z,31.63
2023-04-10T11:29:16.723Z,29.70
2023-04-10T11:31:44.937Z,34.20
2023-04-10T11:34:11.898Z,32.13
2023-04-10T11:36:40.862Z,30.73
2023-04-10T11:39:12.650Z,30.93
2023-04-10T11:41:43.962Z,31.70
2023-04-10T11:44:41.413Z,29.93
2023-04-10T11:47:12.005Z,27.97
2023-04-10T11:49:38.507Z,28.53
2023-04-10T11:52:04.744Z,29.63
2023-04-10T11:54:31.811Z,27.37
2023-04-10T11:57:05.548Z,27.33
2023-04-10T11:59:33.259Z,26.57
2023-04-10T12:02:14.035Z,27.83
2023-04-10T12:04:44.387Z,29.43
2023-04-10T12:07:11.188Z,26.00
2023-04-10T12:09:37.681Z,28.47
2023-04-10T12:12:05.926Z,26.23
2023-04-10T12:14:35.690Z,28.23
2023-04-10T12:17:04.404Z,25.50
2023-04-10T12:19:32.166Z,38.37
2023-04-10T12:21:59.267Z,32.27
2023-04-10T12:24:45.566Z,28.67
2023-04-10T12:27:30.078Z,23.63
2023-04-10T12:29:58.592Z,29.93
2023-04-10T12:32:26.509Z,21.03
2023-04-10T12:34:57.816Z,22.03
2023-04-10T12:37:25.883Z,21.43
2023-04-10T12:39:52.927Z,23.20
2023-04-10T12:42:21.668Z,35.07
2023-04-10T12:44:55.711Z,20.37
2023-04-10T12:47:22.950Z,22.00
2023-04-10T12:50:05.876Z,18.73
2023-04-10T12:52:32.640Z,38.33
2023-04-10T12:55:12.684Z,20.97
2023-04-10T12:57:40.002Z,20.37
2023-04-10T13:00:09.044Z,18.67
2023-04-10T13:02:37.009Z,22.20
2023-04-10T13:05:05.311Z,20.47
2023-04-10T13:07:31.944Z,18.37
2023-04-10T13:09:59.275Z,18.97
2023-04-10T13:12:26.404Z,17.03
2023-04-10T13:14:53.860Z,19.03
2023-04-10T13:17:21.081Z,19.57
2023-04-10T13:19:48.289Z,28.10
2023-04-10T13:22:14.537Z,21.57
2023-04-10T13:24:41.604Z,16.20
2023-04-10T13:27:08.894Z,17.57
2023-04-10T13:29:36.428Z,14.17
2023-04-10T13:32:04.739Z,16.60
2023-04-10T13:34:32.345Z,17.80
2023-04-10T13:36:58.957Z,15.67
2023-04-10T13:39:26.085Z,12.87
2023-04-10T13:41:52.173Z,12.33
2023-04-10T13:44:18.548Z,14.07
2023-04-10T13:46:44.736Z,62.90
2023-04-10T13:49:11.422Z,24.60
2023-04-10T13:51:37.475Z,22.87
2023-04-10T13:54:04.440Z,26.83
2023-04-10T13:56:30.511Z,15.30
2023-04-10T13:58:57.162Z,18.27
2023-04-10T14:01:23.673Z,13.97
2023-04-10T14:03:50.465Z,14.33
2023-04-10T14:06:16.632Z,14.40
2023-04-10T14:08:43.092Z,15.53
2023-04-10T14:11:09.249Z,14.80
2023-04-10T14:13:35.658Z,16.87
2023-04-10T14:16:03.369Z,16.87
2023-04-10T14:18:29.933Z,14.13
2023-04-10T14:20:55.994Z,13.83
2023-04-10T14:23:22.394Z,15.47
2023-04-10T14:25:49.714Z,13.10
2023-04-10T14:28:18.906Z,13.83
2023-04-10T14:30:49.740Z,13.83
2023-04-10T14:33:18.740Z,17.07
2023-04-10T14:35:47.575Z,14.40
2023-04-10T14:38:15.056Z,14.07
2023-04-10T14:40:41.712Z,14.77
2023-04-10T14:43:08.178Z,15.73
2023-04-10T14:45:34.537Z,15.03
2023-04-10T14:48:01.826Z,14.50
2023-04-10T14:50:31.073Z,19.27
2023-04-10T14:52:59.638Z,14.80
2023-04-10T14:55:27.874Z,17.83
2023-04-10T14:57:54.965Z,15.80
2023-04-10T15:00:24.438Z,16.53
2023-04-10T15:02:51.134Z,19.10
2023-04-10T15:05:18.334Z,17.93
2023-04-10T15:07:44.776Z,16.30
2023-04-10T15:10:11.100Z,13.00
2023-04-10T15:12:37.812Z,16.80
2023-04-10T15:15:05.130Z,12.97
2023-04-10T15:17:31.702Z,16.03
2023-04-10T15:19:58.129Z,14.20
2023-04-10T15:22:25.568Z,14.30
2023-04-10T15:24:52.301Z,17.60
2023-04-10T15:27:22.421Z,14.60
2023-04-10T15:29:48.986Z,14.27
2023-04-10T15:32:15.686Z,12.23
2023-04-10T15:34:41.998Z,12.47
2023-04-10T15:37:09.041Z,9.60
2023-04-10T15:39:36.395Z,10.27
2023-04-10T15:42:05.304Z,13.87
2023-04-10T15:44:32.020Z,23.13
2023-04-10T15:46:58.782Z,23.13
2023-04-10T15:49:36.295Z,15.23
2023-04-10T15:52:05.610Z,14.97
2023-04-10T15:54:35.432Z,17.63
2023-04-10T15:57:03.361Z,16.07
2023-04-10T15:59:32.160Z,13.93
2023-04-10T16:01:58.675Z,14.07
2023-04-10T16:04:25.471Z,16.20
2023-04-10T16:06:52.438Z,13.77
2023-04-10T16:11:50.234Z,14.37
2023-04-10T16:14:18.159Z,11.67
2023-04-10T16:16:45.302Z,12.50
2023-04-10T16:19:11.604Z,14.87
2023-04-10T16:21:38.666Z,14.60
2023-04-10T16:24:05.083Z,14.13
2023-04-10T16:26:31.825Z,14.20
2023-04-10T16:28:57.958Z,16.23
2023-04-10T16:31:24.550Z,14.20
2023-04-10T16:33:50.678Z,13.97
2023-04-10T16:36:19.703Z,12.57
2023-04-10T16:38:51.903Z,13.90
2023-04-10T16:41:20.010Z,14.10
2023-04-10T16:43:48.431Z,14.07
2023-04-10T16:46:15.663Z,12.30
2023-04-10T16:48:42.163Z,12.97
2023-04-10T16:51:15.142Z,14.93
2023-04-10T16:53:41.396Z,14.53
2023-04-10T16:56:08.133Z,14.57
2023-04-10T16:58:36.119Z,14.80
2023-04-10T17:01:14.066Z,14.17
2023-04-10T17:03:40.755Z,15.43
2023-04-10T17:06:07.608Z,14.77
2023-04-10T17:08:33.959Z,15.90
2023-04-10T17:11:00.985Z,14.60
2023-04-10T17:13:27.252Z,22.53
2023-04-10T17:15:54.668Z,21.83
2023-04-10T17:18:22.168Z,21.40
2023-04-10T17:20:49.025Z,18.73
2023-04-10T17:23:15.374Z,26.57
2023-04-10T17:25:42.454Z,27.43
2023-04-10T17:28:08.876Z,18.13
2023-04-10T17:30:35.908Z,14.27
2023-04-10T17:33:02.436Z,14.17
2023-04-10T17:35:29.495Z,11.87
2023-04-10T17:37:55.845Z,13.00
2023-04-10T17:40:24.272Z,15.03
2023-04-10T17:42:51.161Z,14.87
2023-04-10T17:45:17.811Z,14.87
2023-04-10T17:47:44.568Z,13.27
2023-04-10T17:50:11.415Z,13.57
2023-04-10T17:52:37.881Z,19.30
2023-04-10T17:55:04.822Z,12.10
2023-04-10T17:57:31.045Z,12.60
2023-04-10T17:59:57.769Z,16.97
2023-04-10T18:03:05.204Z,17.40
2023-04-10T18:05:35.927Z,15.83
2023-04-10T18:08:02.204Z,13.00
2023-04-10T18:10:28.695Z,15.73
2023-04-10T18:12:57.983Z,17.10
2023-04-10T18:15:25.634Z,13.63
2023-04-10T18:17:51.991Z,17.40
2023-04-10T18:20:20.091Z,18.50
2023-04-10T18:22:47.467Z,15.97
2023-04-10T18:25:15.466Z,15.60
2023-04-10T18:27:51.405Z,18.30
2023-04-10T18:30:22.427Z,18.57
2023-04-10T18:32:51.386Z,18.93
2023-04-10T18:35:21.032Z,20.17
2023-04-10T18:37:47.322Z,19.83
2023-04-10T18:40:16.720Z,20.53
2023-04-10T18:42:43.824Z,21.00
2023-04-10T18:45:12.279Z,26.13
2023-04-10T18:47:38.696Z,22.90
2023-04-10T18:50:06.006Z,18.73
2023-04-10T18:52:32.244Z,22.10
2023-04-10T18:54:59.059Z,20.20
2023-04-10T18:57:25.331Z,23.93
2023-04-10T18:59:51.950Z,19.47
2023-04-10T19:02:18.354Z,19.57
2023-04-10T19:04:45.410Z,20.30
2023-04-10T19:07:11.711Z,20.27
2023-04-10T19:09:38.665Z,22.43
2023-04-10T19:12:05.221Z,18.70
2023-04-10T19:14:35.490Z,18.60
2023-04-10T19:17:05.262Z,19.00
2023-04-10T19:19:33.274Z,18.70
2023-04-10T19:22:00.327Z,17.23
2023-04-10T19:24:26.996Z,17.93
2023-04-10T19:26:55.796Z,19.27
2023-04-10T19:29:23.009Z,20.33
2023-04-10T19:31:52.041Z,20.43
2023-04-10T19:34:18.879Z,21.77
2023-04-10T19:36:45.396Z,18.20
2023-04-10T19:39:11.887Z,19.87
2023-04-10T19:41:41.141Z,20.40
2023-04-10T19:44:08.123Z,22.23
2023-04-10T19:46:34.587Z,19.00
2023-04-10T19:49:01.439Z,20.00
2023-04-10T19:51:27.980Z,22.67
2023-04-10T19:53:57.998Z,24.20
2023-04-10T19:56:26.021Z,20.23
2023-04-10T19:58:53.015Z,21.17
2023-04-10T20:01:19.505Z,21.63
2023-04-10T20:03:46.379Z,18.27
2023-04-10T20:06:12.604Z,20.80
2023-04-10T20:08:39.193Z,20.20
2023-04-10T20:11:05.678Z,23.17
2023-04-10T20:13:33.669Z,19.23
2023-04-10T20:16:00.214Z,17.93
2023-04-10T20:18:26.861Z,25.70
2023-04-10T20:20:53.454Z,17.27
2023-04-10T20:23:20.341Z,19.73
2023-04-10T20:25:46.645Z,22.13
2023-04-10T20:28:16.118Z,22.27
2023-04-10T20:30:43.254Z,19.60
2023-04-10T20:33:10.577Z,20.50
2023-04-10T20:35:37.174Z,23.37
2023-04-10T20:38:03.980Z,22.73
2023-04-10T20:40:30.154Z,23.57
2023-04-10T20:42:56.500Z,20.77
2023-04-10T20:45:22.794Z,20.30
2023-04-10T20:47:49.641Z,22.53
2023-04-10T20:50:15.957Z,20.20
2023-04-10T20:52:42.333Z,20.57
2023-04-10T20:55:08.708Z,18.90
2023-04-10T20:57:35.328Z,22.30
2023-04-10T21:00:01.570Z,17.70
2023-04-10T21:02:28.392Z,21.67
2023-04-10T21:04:55.890Z,24.30
2023-04-10T21:07:22.257Z,21.70
2023-04-10T21:09:48.423Z,20.03
2023-04-10T21:12:14.941Z,20.60
2023-04-10T21:14:41.079Z,21.60
2023-04-10T21:17:07.437Z,20.97
2023-04-10T21:19:33.560Z,27.00
2023-04-10T21:22:00.171Z,24.33
2023-04-10T21:24:27.454Z,27.83
2023-04-10T21:26:53.956Z,25.67
2023-04-10T21:29:20.291Z,29.67
2023-04-10T21:31:47.898Z,27.97
2023-04-10T21:34:15.364Z,25.93
2023-04-10T21:36:41.730Z,25.23
2023-04-10T21:39:09.118Z,28.03
2023-04-10T21:41:36.797Z,25.93
2023-04-10T21:44:03.260Z,26.73
2023-04-10T21:46:30.375Z,27.73
2023-04-10T21:48:57.317Z,28.03
2023-04-10T21:51:26.290Z,31.43
2023-04-10T21:53:53.033Z,28.80
2023-04-10T21:56:20.113Z,30.30
2023-04-10T21:58:46.219Z,31.67
2023-04-10T22:01:12.695Z,27.60
2023-04-10T22:03:38.939Z,30.40
2023-04-10T22:06:05.660Z,27.17
2023-04-10T22:08:32.028Z,30.07
2023-04-10T22:10:58.399Z,31.67
2023-04-10T22:13:30.858Z,28.63
2023-04-10T22:16:01.046Z,32.33
2023-04-10T22:18:27.176Z,31.03
2023-04-10T22:20:53.558Z,32.60
2023-04-10T22:23:19.662Z,28.80
2023-04-10T22:25:46.217Z,33.43
2023-04-10T22:28:13.662Z,32.90
2023-04-10T22:30:40.102Z,31.10
2023-04-10T22:33:06.417Z,28.30
2023-04-10T22:35:32.888Z,33.97
2023-04-10T22:37:59.060Z,32.13
2023-04-10T22:40:25.454Z,31.13
2023-04-10T22:42:51.557Z,30.97
2023-04-10T22:45:17.987Z,30.07
2023-04-10T22:47:44.089Z,29.93
2023-04-10T22:50:10.542Z,32.07
2023-04-10T22:52:37.563Z,28.40
2023-04-10T22:55:06.170Z,31.13
2023-04-10T22:57:32.799Z,29.63
2023-04-10T23:00:00.577Z,30.50
2023-04-10T23:02:27.176Z,30.43
2023-04-10T23:04:53.778Z,31.67
2023-04-10T23:07:19.902Z,31.83
2023-04-10T23:09:46.204Z,31.73
2023-04-10T23:12:12.334Z,29.13
2023-04-10T23:14:38.699Z,34.37
2023-04-10T23:17:04.892Z,37.13
2023-04-10T23:19:31.243Z,29.47
2023-04-10T23:21:57.326Z,28.80
2023-04-10T23:24:23.720Z,28.47
2023-04-10T23:26:50.175Z,29.87
2023-04-10T23:29:16.552Z,29.23
2023-04-10T23:31:43.073Z,32.03
2023-04-10T23:34:09.629Z,31.80
2023-04-10T23:36:35.685Z,28.53
2023-04-10T23:39:02.060Z,30.40
2023-04-10T23:41:28.087Z,30.97
2023-04-10T23:43:54.480Z,29.30
2023-04-10T23:46:20.628Z,28.80
2023-04-10T23:48:47.031Z,31.43
2023-04-10T23:51:13.100Z,31.53
2023-04-10T23:53:39.480Z,30.37
2023-04-10T23:56:07.092Z,31.33
2023-04-10T23:58:33.464Z,33.47
